sensor_id;sensor_type;location;lat;lon;timestamp;temperature;humidity
10901;DHT22;5503;53.208;10.392;2022-08-19T00:01:50;19.70;99.90
10901;DHT22;5503;53.208;10.392;2022-08-19T00:04:19;19.70;99.90
10901;DHT22;5503;53.208;10.392;2022-08-19T00:06:47;19.60;99.90
10901;DHT22;5503;53.208;10.392;2022-08-19T00:09:17;19.60;99.90
10901;DHT22;5503;53.208;10.392;2022-08-19T00:14:14;19.50;99.90
10901;DHT22;5503;53.208;10.392;2022-08-19T00:16:42;19.50;99.90
10901;DHT22;5503;53.208;10.392;2022-08-19T00:21:36;19.50;99.90
10901;DHT22;5503;53.208;10.392;2022-08-19T00:24:06;19.30;99.90
10901;DHT22;5503;53.208;10.392;2022-08-19T00:26:34;19.50;99.90
10901;DHT22;5503;53.208;10.392;2022-08-19T00:29:02;19.40;99.90
10901;DHT22;5503;53.208;10.392;2022-08-19T00:41:21;19.40;99.90
10901;DHT22;5503;53.208;10.392;2022-08-19T00:44:00;19.40;99.90
10901;DHT22;5503;53.208;10.392;2022-08-19T00:48:56;19.40;99.90
10901;DHT22;5503;53.208;10.392;2022-08-19T00:51:24;19.40;99.90
10901;DHT22;5503;53.208;10.392;2022-08-19T00:53:52;19.40;99.90
10901;DHT22;5503;53.208;10.392;2022-08-19T00:56:20;19.40;99.90
10901;DHT22;5503;53.208;10.392;2022-08-19T01:11:04;19.40;99.90
10901;DHT22;5503;53.208;10.392;2022-08-19T01:13:33;19.40;99.90
10901;DHT22;5503;53.208;10.392;2022-08-19T01:16:05;19.40;99.90
10901;DHT22;5503;53.208;10.392;2022-08-19T01:18:38;19.40;99.90
10901;DHT22;5503;53.208;10.392;2022-08-19T01:21:10;19.40;99.90
10901;DHT22;5503;53.208;10.392;2022-08-19T01:23:42;19.30;99.90
10901;DHT22;5503;53.208;10.392;2022-08-19T01:26:11;19.30;99.90
10901;DHT22;5503;53.208;10.392;2022-08-19T01:28:40;19.30;99.90
10901;DHT22;5503;53.208;10.392;2022-08-19T01:31:08;19.30;99.90
10901;DHT22;5503;53.208;10.392;2022-08-19T01:36:06;19.40;99.90
10901;DHT22;5503;53.208;10.392;2022-08-19T01:38:36;19.40;99.90
10901;DHT22;5503;53.208;10.392;2022-08-19T01:41:05;19.40;99.90
10901;DHT22;5503;53.208;10.392;2022-08-19T01:58:20;19.40;99.90
10901;DHT22;5503;53.208;10.392;2022-08-19T02:05:43;19.30;99.90
10901;DHT22;5503;53.208;10.392;2022-08-19T02:08:11;19.20;99.90
10901;DHT22;5503;53.208;10.392;2022-08-19T02:15:43;19.20;99.90
10901;DHT22;5503;53.208;10.392;2022-08-19T02:20:38;19.20;99.90
10901;DHT22;5503;53.208;10.392;2022-08-19T02:23:06;19.20;99.90
10901;DHT22;5503;53.208;10.392;2022-08-19T02:25:33;19.20;99.90
10901;DHT22;5503;53.208;10.392;2022-08-19T02:30:28;15.20;99.90
10901;DHT22;5503;53.208;10.392;2022-08-19T02:32:56;22.00;99.90
10901;DHT22;5503;53.208;10.392;2022-08-19T02:40:36;19.30;99.90
10901;DHT22;5503;53.208;10.392;2022-08-19T02:45:32;19.20;99.90
10901;DHT22;5503;53.208;10.392;2022-08-19T02:48:00;19.20;99.90
10901;DHT22;5503;53.208;10.392;2022-08-19T03:02:43;18.90;99.90
10901;DHT22;5503;53.208;10.392;2022-08-19T03:05:13;18.90;99.90
10901;DHT22;5503;53.208;10.392;2022-08-19T03:12:36;18.90;99.90
10901;DHT22;5503;53.208;10.392;2022-08-19T03:15:04;18.90;99.90
10901;DHT22;5503;53.208;10.392;2022-08-19T03:17:32;18.90;99.90
10901;DHT22;5503;53.208;10.392;2022-08-19T03:22:28;18.90;99.90
10901;DHT22;5503;53.208;10.392;2022-08-19T03:37:11;18.90;99.90
10901;DHT22;5503;53.208;10.392;2022-08-19T03:39:41;19.00;99.90
10901;DHT22;5503;53.208;10.392;2022-08-19T03:42:09;19.00;99.90
10901;DHT22;5503;53.208;10.392;2022-08-19T03:47:04;19.00;99.90
10901;DHT22;5503;53.208;10.392;2022-08-19T03:49:32;19.10;99.90
10901;DHT22;5503;53.208;10.392;2022-08-19T03:52:02;19.10;99.90
10901;DHT22;5503;53.208;10.392;2022-08-19T03:57:01;22.30;99.90
10901;DHT22;5503;53.208;10.392;2022-08-19T03:59:31;19.20;99.90
10901;DHT22;5503;53.208;10.392;2022-08-19T04:02:01;19.20;99.90
10901;DHT22;5503;53.208;10.392;2022-08-19T04:04:29;19.10;99.90
10901;DHT22;5503;53.208;10.392;2022-08-19T04:11:52;19.00;99.90
10901;DHT22;5503;53.208;10.392;2022-08-19T04:14:24;19.00;99.90
10901;DHT22;5503;53.208;10.392;2022-08-19T04:16:52;19.00;99.90
10901;DHT22;5503;53.208;10.392;2022-08-19T04:19:19;18.90;99.90
10901;DHT22;5503;53.208;10.392;2022-08-19T04:21:49;19.00;99.90
10901;DHT22;5503;53.208;10.392;2022-08-19T04:26:44;18.90;99.90
10901;DHT22;5503;53.208;10.392;2022-08-19T04:29:13;18.90;99.90
10901;DHT22;5503;53.208;10.392;2022-08-19T04:31:43;18.80;99.90
10901;DHT22;5503;53.208;10.392;2022-08-19T04:34:12;18.90;99.90
10901;DHT22;5503;53.208;10.392;2022-08-19T04:36:41;18.80;99.90
10901;DHT22;5503;53.208;10.392;2022-08-19T04:39:13;18.90;99.90
10901;DHT22;5503;53.208;10.392;2022-08-19T04:46:57;18.80;99.90
10901;DHT22;5503;53.208;10.392;2022-08-19T04:51:53;18.90;99.90
10901;DHT22;5503;53.208;10.392;2022-08-19T04:54:22;18.80;99.90
10901;DHT22;5503;53.208;10.392;2022-08-19T05:04:18;18.80;99.90
10901;DHT22;5503;53.208;10.392;2022-08-19T05:09:13;18.80;99.90
10901;DHT22;5503;53.208;10.392;2022-08-19T05:14:07;18.90;99.90
10901;DHT22;5503;53.208;10.392;2022-08-19T05:21:48;18.80;99.90
10901;DHT22;5503;53.208;10.392;2022-08-19T05:32:03;18.80;99.90
10901;DHT22;5503;53.208;10.392;2022-08-19T05:37:05;18.90;99.90
10901;DHT22;5503;53.208;10.392;2022-08-19T05:39:35;20.00;99.90
10901;DHT22;5503;53.208;10.392;2022-08-19T05:42:06;18.80;99.90
10901;DHT22;5503;53.208;10.392;2022-08-19T05:44:37;18.90;99.90
10901;DHT22;5503;53.208;10.392;2022-08-19T05:47:06;18.90;99.90
10901;DHT22;5503;53.208;10.392;2022-08-19T05:49:35;18.90;99.90
10901;DHT22;5503;53.208;10.392;2022-08-19T05:52:05;21.10;99.90
10901;DHT22;5503;53.208;10.392;2022-08-19T05:54:33;18.90;99.90
10901;DHT22;5503;53.208;10.392;2022-08-19T05:57:02;18.90;99.90
10901;DHT22;5503;53.208;10.392;2022-08-19T06:01:57;18.90;99.90
10901;DHT22;5503;53.208;10.392;2022-08-19T06:06:52;18.90;99.90
10901;DHT22;5503;53.208;10.392;2022-08-19T06:09:22;18.90;99.90
10901;DHT22;5503;53.208;10.392;2022-08-19T06:11:50;18.80;99.90
10901;DHT22;5503;53.208;10.392;2022-08-19T06:14:21;18.80;99.90
10901;DHT22;5503;53.208;10.392;2022-08-19T06:19:18;18.70;99.90
10901;DHT22;5503;53.208;10.392;2022-08-19T06:21:47;18.60;99.90
10901;DHT22;5503;53.208;10.392;2022-08-19T06:24:16;18.80;99.90
10901;DHT22;5503;53.208;10.392;2022-08-19T06:26:47;18.80;99.90
10901;DHT22;5503;53.208;10.392;2022-08-19T06:29:16;18.80;99.90
10901;DHT22;5503;53.208;10.392;2022-08-19T06:31:44;18.90;99.90
10901;DHT22;5503;53.208;10.392;2022-08-19T06:36:41;18.90;99.90
10901;DHT22;5503;53.208;10.392;2022-08-19T06:39:11;19.00;99.90
10901;DHT22;5503;53.208;10.392;2022-08-19T06:41:45;18.90;99.90
10901;DHT22;5503;53.208;10.392;2022-08-19T06:46:41;18.90;99.90
10901;DHT22;5503;53.208;10.392;2022-08-19T06:59:03;18.90;99.90
10901;DHT22;5503;53.208;10.392;2022-08-19T07:01:33;18.90;99.90
10901;DHT22;5503;53.208;10.392;2022-08-19T07:08:57;19.00;99.90
10901;DHT22;5503;53.208;10.392;2022-08-19T07:16:21;18.90;99.90
10901;DHT22;5503;53.208;10.392;2022-08-19T07:18:49;18.90;99.90
10901;DHT22;5503;53.208;10.392;2022-08-19T07:21:18;19.00;99.90
10901;DHT22;5503;53.208;10.392;2022-08-19T07:26:20;19.00;99.90
10901;DHT22;5503;53.208;10.392;2022-08-19T07:28:48;19.00;99.90
10901;DHT22;5503;53.208;10.392;2022-08-19T07:31:18;18.90;99.90
10901;DHT22;5503;53.208;10.392;2022-08-19T07:33:47;18.90;99.90
10901;DHT22;5503;53.208;10.392;2022-08-19T07:36:16;18.90;99.90
10901;DHT22;5503;53.208;10.392;2022-08-19T07:38:46;18.90;99.90
10901;DHT22;5503;53.208;10.392;2022-08-19T07:41:17;18.80;99.90
10901;DHT22;5503;53.208;10.392;2022-08-19T07:46:12;18.80;99.90
10901;DHT22;5503;53.208;10.392;2022-08-19T07:48:41;18.80;99.90
10901;DHT22;5503;53.208;10.392;2022-08-19T07:51:13;18.80;99.90
10901;DHT22;5503;53.208;10.392;2022-08-19T07:58:39;18.90;99.90
10901;DHT22;5503;53.208;10.392;2022-08-19T08:01:09;18.90;99.90
10901;DHT22;5503;53.208;10.392;2022-08-19T08:03:37;18.90;99.90
10901;DHT22;5503;53.208;10.392;2022-08-19T08:06:23;18.90;99.90
10901;DHT22;5503;53.208;10.392;2022-08-19T08:09:09;18.90;99.90
10901;DHT22;5503;53.208;10.392;2022-08-19T08:11:46;20.30;99.90
10901;DHT22;5503;53.208;10.392;2022-08-19T08:14:16;18.80;99.90
10901;DHT22;5503;53.208;10.392;2022-08-19T08:19:11;18.80;99.90
10901;DHT22;5503;53.208;10.392;2022-08-19T08:21:42;18.80;99.90
10901;DHT22;5503;53.208;10.392;2022-08-19T08:24:10;18.70;99.90
10901;DHT22;5503;53.208;10.392;2022-08-19T08:39:00;18.90;99.90
10901;DHT22;5503;53.208;10.392;2022-08-19T08:41:31;18.80;99.90
10901;DHT22;5503;53.208;10.392;2022-08-19T08:44:02;18.90;99.90
10901;DHT22;5503;53.208;10.392;2022-08-19T08:46:34;18.90;99.90
10901;DHT22;5503;53.208;10.392;2022-08-19T08:49:06;18.90;99.90
10901;DHT22;5503;53.208;10.392;2022-08-19T08:51:40;18.80;99.90
10901;DHT22;5503;53.208;10.392;2022-08-19T08:54:12;18.80;99.90
10901;DHT22;5503;53.208;10.392;2022-08-19T08:56:41;18.80;99.90
10901;DHT22;5503;53.208;10.392;2022-08-19T08:59:19;18.80;99.90
10901;DHT22;5503;53.208;10.392;2022-08-19T09:06:50;21.80;99.90
10901;DHT22;5503;53.208;10.392;2022-08-19T09:09:23;18.80;99.90
10901;DHT22;5503;53.208;10.392;2022-08-19T09:12:00;18.80;99.90
10901;DHT22;5503;53.208;10.392;2022-08-19T09:14:35;18.70;99.90
10901;DHT22;5503;53.208;10.392;2022-08-19T09:17:07;16.70;99.90
10901;DHT22;5503;53.208;10.392;2022-08-19T09:19:35;18.70;99.90
10901;DHT22;5503;53.208;10.392;2022-08-19T09:24:32;18.80;99.90
10901;DHT22;5503;53.208;10.392;2022-08-19T09:29:26;21.70;99.90
10901;DHT22;5503;53.208;10.392;2022-08-19T09:41:49;18.90;99.90
10901;DHT22;5503;53.208;10.392;2022-08-19T09:59:03;19.10;99.90
10901;DHT22;5503;53.208;10.392;2022-08-19T10:01:31;19.10;99.90
10901;DHT22;5503;53.208;10.392;2022-08-19T10:04:00;19.00;99.90
10901;DHT22;5503;53.208;10.392;2022-08-19T10:06:29;19.00;99.90
10901;DHT22;5503;53.208;10.392;2022-08-19T10:08:59;21.20;99.90
10901;DHT22;5503;53.208;10.392;2022-08-19T10:16:23;19.20;99.90
10901;DHT22;5503;53.208;10.392;2022-08-19T10:18:51;19.20;99.90
10901;DHT22;5503;53.208;10.392;2022-08-19T10:21:22;19.20;99.90
10901;DHT22;5503;53.208;10.392;2022-08-19T10:23:51;19.00;99.90
10901;DHT22;5503;53.208;10.392;2022-08-19T10:26:20;19.20;99.90
10901;DHT22;5503;53.208;10.392;2022-08-19T10:31:19;19.30;99.90
10901;DHT22;5503;53.208;10.392;2022-08-19T10:36:18;19.30;99.90
10901;DHT22;5503;53.208;10.392;2022-08-19T10:38:48;19.30;99.90
10901;DHT22;5503;53.208;10.392;2022-08-19T10:41:17;19.30;99.90
10901;DHT22;5503;53.208;10.392;2022-08-19T10:46:14;19.40;99.90
10901;DHT22;5503;53.208;10.392;2022-08-19T10:51:11;19.50;99.90
10901;DHT22;5503;53.208;10.392;2022-08-19T10:53:56;19.60;99.90
10901;DHT22;5503;53.208;10.392;2022-08-19T11:06:38;23.30;99.90
10901;DHT22;5503;53.208;10.392;2022-08-19T11:09:07;19.70;99.90
10901;DHT22;5503;53.208;10.392;2022-08-19T11:11:34;19.70;99.90
10901;DHT22;5503;53.208;10.392;2022-08-19T11:21:29;19.70;99.90
10901;DHT22;5503;53.208;10.392;2022-08-19T11:24:00;19.70;99.90
10901;DHT22;5503;53.208;10.392;2022-08-19T11:26:29;19.80;99.90
10901;DHT22;5503;53.208;10.392;2022-08-19T11:31:25;19.90;99.90
10901;DHT22;5503;53.208;10.392;2022-08-19T11:36:20;20.10;99.90
10901;DHT22;5503;53.208;10.392;2022-08-19T11:41:17;20.20;99.90
10901;DHT22;5503;53.208;10.392;2022-08-19T11:46:13;20.20;99.90
10901;DHT22;5503;53.208;10.392;2022-08-19T11:48:40;20.20;99.90
10901;DHT22;5503;53.208;10.392;2022-08-19T11:51:11;20.20;99.90
10901;DHT22;5503;53.208;10.392;2022-08-19T11:56:08;20.00;99.90
10901;DHT22;5503;53.208;10.392;2022-08-19T11:58:37;20.10;99.90
10901;DHT22;5503;53.208;10.392;2022-08-19T12:01:06;20.10;99.90
10901;DHT22;5503;53.208;10.392;2022-08-19T12:06:04;20.10;99.90
10901;DHT22;5503;53.208;10.392;2022-08-19T12:15:56;20.20;99.90
10901;DHT22;5503;53.208;10.392;2022-08-19T12:20:52;20.20;99.90
10901;DHT22;5503;53.208;10.392;2022-08-19T12:25:48;20.40;99.90
10901;DHT22;5503;53.208;10.392;2022-08-19T12:28:18;20.40;99.90
10901;DHT22;5503;53.208;10.392;2022-08-19T12:33:14;18.50;99.90
10901;DHT22;5503;53.208;10.392;2022-08-19T12:50:30;20.40;99.90
10901;DHT22;5503;53.208;10.392;2022-08-19T13:00:22;20.60;99.90
10901;DHT22;5503;53.208;10.392;2022-08-19T13:02:51;20.70;99.90
10901;DHT22;5503;53.208;10.392;2022-08-19T13:05:19;20.70;99.90
10901;DHT22;5503;53.208;10.392;2022-08-19T13:07:50;20.60;99.90
10901;DHT22;5503;53.208;10.392;2022-08-19T13:10:19;20.70;99.90
10901;DHT22;5503;53.208;10.392;2022-08-19T13:12:48;20.70;99.90
10901;DHT22;5503;53.208;10.392;2022-08-19T13:15:18;20.70;99.90
10901;DHT22;5503;53.208;10.392;2022-08-19T13:22:41;20.80;99.90
10901;DHT22;5503;53.208;10.392;2022-08-19T13:25:12;21.00;99.90
10901;DHT22;5503;53.208;10.392;2022-08-19T13:27:40;21.00;99.90
10901;DHT22;5503;53.208;10.392;2022-08-19T13:30:09;20.90;99.90
10901;DHT22;5503;53.208;10.392;2022-08-19T13:32:54;20.90;99.90
10901;DHT22;5503;53.208;10.392;2022-08-19T13:35:40;20.80;99.90
10901;DHT22;5503;53.208;10.392;2022-08-19T13:40:37;19.10;99.90
10901;DHT22;5503;53.208;10.392;2022-08-19T13:43:05;21.10;99.90
10901;DHT22;5503;53.208;10.392;2022-08-19T13:45:33;21.20;99.90
10901;DHT22;5503;53.208;10.392;2022-08-19T13:48:02;21.40;99.90
10901;DHT22;5503;53.208;10.392;2022-08-19T13:50:33;21.60;99.90
10901;DHT22;5503;53.208;10.392;2022-08-19T13:53:00;22.70;99.90
10901;DHT22;5503;53.208;10.392;2022-08-19T13:57:58;21.80;99.90
10901;DHT22;5503;53.208;10.392;2022-08-19T14:00:27;22.00;99.90
10901;DHT22;5503;53.208;10.392;2022-08-19T14:02:55;22.00;99.90
10901;DHT22;5503;53.208;10.392;2022-08-19T14:05:24;22.30;99.90
10901;DHT22;5503;53.208;10.392;2022-08-19T14:07:51;22.30;99.90
10901;DHT22;5503;53.208;10.392;2022-08-19T14:10:19;23.40;99.90
10901;DHT22;5503;53.208;10.392;2022-08-19T14:12:47;22.30;99.90
10901;DHT22;5503;53.208;10.392;2022-08-19T14:15:15;22.30;99.90
10901;DHT22;5503;53.208;10.392;2022-08-19T14:17:44;22.30;99.90
10901;DHT22;5503;53.208;10.392;2022-08-19T14:20:12;22.20;99.90
10901;DHT22;5503;53.208;10.392;2022-08-19T14:22:41;22.20;99.90
10901;DHT22;5503;53.208;10.392;2022-08-19T14:25:14;22.30;99.90
10901;DHT22;5503;53.208;10.392;2022-08-19T14:30:12;22.40;99.90
10901;DHT22;5503;53.208;10.392;2022-08-19T14:32:45;22.50;99.90
10901;DHT22;5503;53.208;10.392;2022-08-19T14:35:14;22.50;99.90
10901;DHT22;5503;53.208;10.392;2022-08-19T14:37:42;22.50;99.90
10901;DHT22;5503;53.208;10.392;2022-08-19T14:40:10;22.50;99.90
10901;DHT22;5503;53.208;10.392;2022-08-19T14:42:38;22.60;99.90
10901;DHT22;5503;53.208;10.392;2022-08-19T14:45:06;22.70;99.90
10901;DHT22;5503;53.208;10.392;2022-08-19T14:47:33;22.80;99.90
10901;DHT22;5503;53.208;10.392;2022-08-19T14:50:01;22.80;99.90
10901;DHT22;5503;53.208;10.392;2022-08-19T14:52:28;22.80;99.40
10901;DHT22;5503;53.208;10.392;2022-08-19T14:54:55;22.80;99.90
10901;DHT22;5503;53.208;10.392;2022-08-19T14:57:22;22.80;99.90
10901;DHT22;5503;53.208;10.392;2022-08-19T14:59:48;22.80;99.90
10901;DHT22;5503;53.208;10.392;2022-08-19T15:02:15;22.90;99.90
10901;DHT22;5503;53.208;10.392;2022-08-19T15:04:43;23.00;99.90
10901;DHT22;5503;53.208;10.392;2022-08-19T15:07:13;23.00;99.90
10901;DHT22;5503;53.208;10.392;2022-08-19T15:09:45;23.00;99.90
10901;DHT22;5503;53.208;10.392;2022-08-19T15:12:17;26.00;99.20
10901;DHT22;5503;53.208;10.392;2022-08-19T15:14:44;23.00;99.90
10901;DHT22;5503;53.208;10.392;2022-08-19T15:17:16;23.10;99.40
10901;DHT22;5503;53.208;10.392;2022-08-19T15:19:44;23.20;97.50
10901;DHT22;5503;53.208;10.392;2022-08-19T15:22:13;23.20;99.90
10901;DHT22;5503;53.208;10.392;2022-08-19T15:24:40;23.20;90.00
10901;DHT22;5503;53.208;10.392;2022-08-19T15:29:38;23.20;92.60
10901;DHT22;5503;53.208;10.392;2022-08-19T15:32:05;23.20;92.80
10901;DHT22;5503;53.208;10.392;2022-08-19T15:34:33;23.20;97.10
10901;DHT22;5503;53.208;10.392;2022-08-19T15:37:00;23.20;96.60
10901;DHT22;5503;53.208;10.392;2022-08-19T15:39:30;23.20;95.70
10901;DHT22;5503;53.208;10.392;2022-08-19T15:41:57;23.20;98.10
10901;DHT22;5503;53.208;10.392;2022-08-19T15:44:25;23.20;95.80
10901;DHT22;5503;53.208;10.392;2022-08-19T15:49:19;23.20;95.40
10901;DHT22;5503;53.208;10.392;2022-08-19T15:51:49;23.20;95.60
10901;DHT22;5503;53.208;10.392;2022-08-19T15:54:19;23.20;95.90
10901;DHT22;5503;53.208;10.392;2022-08-19T15:56:49;23.10;96.60
10901;DHT22;5503;53.208;10.392;2022-08-19T15:59:35;23.10;96.90
10901;DHT22;5503;53.208;10.392;2022-08-19T16:02:23;23.00;92.90
10901;DHT22;5503;53.208;10.392;2022-08-19T16:05:10;23.00;96.20
10901;DHT22;5503;53.208;10.392;2022-08-19T16:07:55;23.00;94.50
10901;DHT22;5503;53.208;10.392;2022-08-19T16:10:22;23.00;94.50
10901;DHT22;5503;53.208;10.392;2022-08-19T16:12:51;23.00;97.40
10901;DHT22;5503;53.208;10.392;2022-08-19T16:20:13;22.80;98.70
10901;DHT22;5503;53.208;10.392;2022-08-19T16:22:41;22.90;99.90
10901;DHT22;5503;53.208;10.392;2022-08-19T16:25:09;22.90;97.10
10901;DHT22;5503;53.208;10.392;2022-08-19T16:27:36;23.00;96.90
10901;DHT22;5503;53.208;10.392;2022-08-19T16:30:06;23.00;97.20
10901;DHT22;5503;53.208;10.392;2022-08-19T16:32:33;23.00;99.10
10901;DHT22;5503;53.208;10.392;2022-08-19T16:35:03;23.00;99.60
10901;DHT22;5503;53.208;10.392;2022-08-19T16:37:31;23.10;96.10
10901;DHT22;5503;53.208;10.392;2022-08-19T16:42:34;22.90;95.10
10901;DHT22;5503;53.208;10.392;2022-08-19T16:45:06;22.90;97.80
10901;DHT22;5503;53.208;10.392;2022-08-19T16:47:34;23.00;98.20
10901;DHT22;5503;53.208;10.392;2022-08-19T16:50:02;23.00;99.90
10901;DHT22;5503;53.208;10.392;2022-08-19T16:52:32;23.00;99.90
10901;DHT22;5503;53.208;10.392;2022-08-19T16:54:59;23.00;94.60
10901;DHT22;5503;53.208;10.392;2022-08-19T16:57:26;23.00;91.80
10901;DHT22;5503;53.208;10.392;2022-08-19T16:59:53;23.00;90.60
10901;DHT22;5503;53.208;10.392;2022-08-19T17:02:21;22.90;91.00
10901;DHT22;5503;53.208;10.392;2022-08-19T17:04:49;23.00;91.20
10901;DHT22;5503;53.208;10.392;2022-08-19T17:07:20;22.90;87.00
10901;DHT22;5503;53.208;10.392;2022-08-19T17:09:47;22.90;87.30
10901;DHT22;5503;53.208;10.392;2022-08-19T17:12:13;25.80;91.90
10901;DHT22;5503;53.208;10.392;2022-08-19T17:14:40;22.90;90.80
10901;DHT22;5503;53.208;10.392;2022-08-19T17:17:07;22.90;92.10
10901;DHT22;5503;53.208;10.392;2022-08-19T17:19:38;22.90;91.10
10901;DHT22;5503;53.208;10.392;2022-08-19T17:22:07;22.90;92.20
10901;DHT22;5503;53.208;10.392;2022-08-19T17:24:37;22.90;90.20
10901;DHT22;5503;53.208;10.392;2022-08-19T17:27:05;23.50;90.40
10901;DHT22;5503;53.208;10.392;2022-08-19T17:29:32;22.80;85.90
10901;DHT22;5503;53.208;10.392;2022-08-19T17:31:59;22.90;86.50
10901;DHT22;5503;53.208;10.392;2022-08-19T17:36:55;22.70;86.20
10901;DHT22;5503;53.208;10.392;2022-08-19T17:39:22;22.70;88.10
10901;DHT22;5503;53.208;10.392;2022-08-19T17:44:18;22.70;89.40
10901;DHT22;5503;53.208;10.392;2022-08-19T17:51:43;22.10;87.40
10901;DHT22;5503;53.208;10.392;2022-08-19T17:54:14;22.60;90.90
10901;DHT22;5503;53.208;10.392;2022-08-19T17:56:42;22.70;90.20
10901;DHT22;5503;53.208;10.392;2022-08-19T17:59:10;22.60;91.10
10901;DHT22;5503;53.208;10.392;2022-08-19T18:01:37;22.60;89.60
10901;DHT22;5503;53.208;10.392;2022-08-19T18:04:04;22.60;88.80
10901;DHT22;5503;53.208;10.392;2022-08-19T18:06:32;22.50;89.40
10901;DHT22;5503;53.208;10.392;2022-08-19T18:11:29;22.60;88.10
10901;DHT22;5503;53.208;10.392;2022-08-19T18:13:56;22.60;90.00
10901;DHT22;5503;53.208;10.392;2022-08-19T18:16:26;22.50;91.90
10901;DHT22;5503;53.208;10.392;2022-08-19T18:18:57;22.50;92.80
10901;DHT22;5503;53.208;10.392;2022-08-19T18:23:56;22.40;93.50
10901;DHT22;5503;53.208;10.392;2022-08-19T18:26:23;19.90;93.60
10901;DHT22;5503;53.208;10.392;2022-08-19T18:28:52;22.30;94.20
10901;DHT22;5503;53.208;10.392;2022-08-19T18:31:19;22.30;95.20
10901;DHT22;5503;53.208;10.392;2022-08-19T18:33:48;22.30;96.80
10901;DHT22;5503;53.208;10.392;2022-08-19T18:36:17;22.30;94.90
10901;DHT22;5503;53.208;10.392;2022-08-19T18:38:46;22.20;95.70
10901;DHT22;5503;53.208;10.392;2022-08-19T18:41:31;22.60;96.40
10901;DHT22;5503;53.208;10.392;2022-08-19T18:44:16;22.10;99.90
10901;DHT22;5503;53.208;10.392;2022-08-19T18:47:01;22.70;99.90
10901;DHT22;5503;53.208;10.392;2022-08-19T18:49:46;21.80;99.90
10901;DHT22;5503;53.208;10.392;2022-08-19T18:52:15;21.70;99.90
10901;DHT22;5503;53.208;10.392;2022-08-19T18:54:42;21.50;99.90
10901;DHT22;5503;53.208;10.392;2022-08-19T18:57:11;21.40;99.90
10901;DHT22;5503;53.208;10.392;2022-08-19T18:59:40;18.20;99.90
10901;DHT22;5503;53.208;10.392;2022-08-19T19:04:37;21.00;99.90
10901;DHT22;5503;53.208;10.392;2022-08-19T19:07:05;20.80;99.90
10901;DHT22;5503;53.208;10.392;2022-08-19T19:09:33;20.60;99.90
10901;DHT22;5503;53.208;10.392;2022-08-19T19:12:04;20.70;99.90
10901;DHT22;5503;53.208;10.392;2022-08-19T19:14:37;20.50;99.90
10901;DHT22;5503;53.208;10.392;2022-08-19T19:17:08;20.40;99.90
10901;DHT22;5503;53.208;10.392;2022-08-19T19:19:37;20.30;99.90
10901;DHT22;5503;53.208;10.392;2022-08-19T19:22:07;20.30;99.90
10901;DHT22;5503;53.208;10.392;2022-08-19T19:24:37;20.20;99.90
10901;DHT22;5503;53.208;10.392;2022-08-19T19:27:05;20.20;99.90
10901;DHT22;5503;53.208;10.392;2022-08-19T19:29:33;20.10;99.90
10901;DHT22;5503;53.208;10.392;2022-08-19T19:32:01;20.00;99.90
10901;DHT22;5503;53.208;10.392;2022-08-19T19:34:29;19.90;99.90
10901;DHT22;5503;53.208;10.392;2022-08-19T19:36:56;18.70;99.90
10901;DHT22;5503;53.208;10.392;2022-08-19T19:39:23;19.80;99.90
10901;DHT22;5503;53.208;10.392;2022-08-19T19:41:50;23.30;99.90
10901;DHT22;5503;53.208;10.392;2022-08-19T19:44:17;22.30;99.90
10901;DHT22;5503;53.208;10.392;2022-08-19T19:46:45;19.80;99.90
10901;DHT22;5503;53.208;10.392;2022-08-19T19:49:12;19.60;99.90
10901;DHT22;5503;53.208;10.392;2022-08-19T19:51:41;19.40;99.90
10901;DHT22;5503;53.208;10.392;2022-08-19T19:54:10;19.40;99.90
10901;DHT22;5503;53.208;10.392;2022-08-19T19:56:38;19.30;99.90
10901;DHT22;5503;53.208;10.392;2022-08-19T19:59:08;19.20;99.90
10901;DHT22;5503;53.208;10.392;2022-08-19T20:08:57;19.20;99.90
10901;DHT22;5503;53.208;10.392;2022-08-19T20:11:34;19.10;99.90
10901;DHT22;5503;53.208;10.392;2022-08-19T20:14:04;19.10;99.90
10901;DHT22;5503;53.208;10.392;2022-08-19T20:19:00;19.10;99.90
10901;DHT22;5503;53.208;10.392;2022-08-19T20:21:28;19.10;99.90
10901;DHT22;5503;53.208;10.392;2022-08-19T20:23:59;19.10;99.90
10901;DHT22;5503;53.208;10.392;2022-08-19T20:26:26;19.10;99.90
10901;DHT22;5503;53.208;10.392;2022-08-19T20:41:10;18.80;99.90
10901;DHT22;5503;53.208;10.392;2022-08-19T20:58:26;18.50;99.90
10901;DHT22;5503;53.208;10.392;2022-08-19T21:00:56;18.60;99.90
10901;DHT22;5503;53.208;10.392;2022-08-19T21:03:27;18.60;99.90
10901;DHT22;5503;53.208;10.392;2022-08-19T21:05:55;18.50;99.90
10901;DHT22;5503;53.208;10.392;2022-08-19T21:08:23;18.50;99.90
10901;DHT22;5503;53.208;10.392;2022-08-19T21:10:51;18.50;99.90
10901;DHT22;5503;53.208;10.392;2022-08-19T21:13:20;18.50;99.90
10901;DHT22;5503;53.208;10.392;2022-08-19T21:15:49;18.50;99.90
10901;DHT22;5503;53.208;10.392;2022-08-19T21:18:18;18.50;99.90
10901;DHT22;5503;53.208;10.392;2022-08-19T21:20:46;18.50;99.90
10901;DHT22;5503;53.208;10.392;2022-08-19T21:23:15;18.50;99.90
10901;DHT22;5503;53.208;10.392;2022-08-19T21:33:05;18.50;99.90
10901;DHT22;5503;53.208;10.392;2022-08-19T21:40:27;18.50;99.90
10901;DHT22;5503;53.208;10.392;2022-08-19T21:42:55;18.50;99.90
10901;DHT22;5503;53.208;10.392;2022-08-19T21:50:17;18.40;99.90
10901;DHT22;5503;53.208;10.392;2022-08-19T21:55:12;18.40;99.90
10901;DHT22;5503;53.208;10.392;2022-08-19T22:00:11;18.40;99.90
10901;DHT22;5503;53.208;10.392;2022-08-19T22:05:06;18.30;99.90
10901;DHT22;5503;53.208;10.392;2022-08-19T22:07:35;18.40;99.90
10901;DHT22;5503;53.208;10.392;2022-08-19T22:10:03;18.40;99.90
10901;DHT22;5503;53.208;10.392;2022-08-19T22:12:34;15.30;99.90
10901;DHT22;5503;53.208;10.392;2022-08-19T22:15:03;18.30;99.90
10901;DHT22;5503;53.208;10.392;2022-08-19T22:22:28;18.30;99.90
10901;DHT22;5503;53.208;10.392;2022-08-19T22:25:02;18.30;99.90
10901;DHT22;5503;53.208;10.392;2022-08-19T22:42:18;18.30;99.90
10901;DHT22;5503;53.208;10.392;2022-08-19T22:59:38;18.30;99.90
10901;DHT22;5503;53.208;10.392;2022-08-19T23:04:32;18.30;99.90
10901;DHT22;5503;53.208;10.392;2022-08-19T23:16:49;18.30;99.90
10901;DHT22;5503;53.208;10.392;2022-08-19T23:19:17;18.30;99.90
10901;DHT22;5503;53.208;10.392;2022-08-19T23:32:13;18.20;99.90
10901;DHT22;5503;53.208;10.392;2022-08-19T23:44:28;18.10;99.90
10901;DHT22;5503;53.208;10.392;2022-08-19T23:49:24;18.20;99.90
10901;DHT22;5503;53.208;10.392;2022-08-19T23:51:53;18.20;99.90
10901;DHT22;5503;53.208;10.392;2022-08-19T23:56:47;18.10;99.90
